createdAt,value
2018-12-11T00:01:28.128Z,101845.84
2018-12-11T00:03:59.398Z,101859.92
2018-12-11T00:06:28.628Z,101863.91
2018-12-11T00:08:57.828Z,101855.57
2018-12-11T00:11:34.028Z,101851.55
2018-12-11T00:14:01.793Z,101855.99
2018-12-11T00:16:31.055Z,101856.43
2018-12-11T00:19:00.235Z,101851.12
2018-12-11T00:21:29.882Z,101855.09
2018-12-11T00:23:59.825Z,101850.67
2018-12-11T00:26:29.027Z,101843.64
2018-12-11T00:28:58.331Z,101853.34
2018-12-11T00:31:27.999Z,101856.87
2018-12-11T00:33:58.232Z,101845.86
2018-12-11T00:36:28.111Z,101857.76
2018-12-11T00:38:58.564Z,101850.24
2018-12-11T00:41:27.784Z,101856.41
2018-12-11T00:43:57.581Z,101843.66
2018-12-11T00:46:27.380Z,101849.79
2018-12-11T00:48:56.568Z,101850.23
2018-12-11T00:51:26.589Z,101836.57
2018-12-11T00:53:55.887Z,101840.56
2018-12-11T00:56:26.610Z,101848.96
2018-12-11T00:58:55.794Z,101852.87
2018-12-11T01:01:24.985Z,101842.32
2018-12-11T01:03:54.591Z,101844.08
2018-12-11T01:06:27.251Z,101854.66
2018-12-11T01:08:57.514Z,101855.53
2018-12-11T01:11:26.702Z,101853.36
2018-12-11T01:13:56.039Z,101862.59
2018-12-11T01:16:25.215Z,101857.33
2018-12-11T01:18:54.538Z,101860.39
2018-12-11T01:21:25.618Z,101865.66
2018-12-11T01:23:55.912Z,101853.78
2018-12-11T01:26:25.086Z,101859.05
2018-12-11T01:28:54.322Z,101857.73
2018-12-11T01:31:24.019Z,101859.05
2018-12-11T01:33:54.368Z,101853.34
2018-12-11T01:36:23.811Z,101856.86
2018-12-11T01:38:54.116Z,101854.66
2018-12-11T01:41:23.291Z,101855.55
2018-12-11T01:43:54.322Z,101855.12
2018-12-11T01:46:23.487Z,101852.89
2018-12-11T01:48:52.707Z,101855.55
2018-12-11T01:51:22.182Z,101857.75
2018-12-11T01:53:51.376Z,101848.48
2018-12-11T01:56:22.796Z,101859.52
2018-12-11T01:58:52.155Z,101848.95
2018-12-11T02:01:21.317Z,101852.00
2018-12-11T02:03:50.499Z,101852.02
2018-12-11T02:06:19.682Z,101856.43
2018-12-11T02:08:49.727Z,101848.02
2018-12-11T02:11:18.931Z,101851.55
2018-12-11T02:13:48.229Z,101855.97
2018-12-11T02:16:17.531Z,101849.36
2018-12-11T02:18:47.374Z,101853.73
2018-12-11T02:21:17.947Z,101858.14
2018-12-11T02:23:47.181Z,101855.91
2018-12-11T02:26:16.408Z,101856.80
2018-12-11T02:28:45.658Z,101853.77
2018-12-11T02:31:14.925Z,101850.28
2018-12-11T02:33:45.814Z,101856.41
2018-12-11T02:36:15.867Z,101848.05
2018-12-11T02:38:45.092Z,101843.64
2018-12-11T02:41:14.843Z,101850.26
2018-12-11T02:43:44.636Z,101848.03
2018-12-11T02:46:14.451Z,101840.11
2018-12-11T02:48:43.600Z,101846.72
2018-12-11T02:51:13.030Z,101845.86
2018-12-11T02:53:42.312Z,101837.91
2018-12-11T02:56:12.491Z,101844.09
2018-12-11T02:58:41.776Z,101844.52
2018-12-11T03:01:10.993Z,101844.51
2018-12-11T03:03:40.212Z,101843.20
2018-12-11T03:06:09.446Z,101838.81
2018-12-11T03:08:40.789Z,101847.63
2018-12-11T03:11:11.397Z,101845.85
2018-12-11T03:13:40.576Z,101845.84
2018-12-11T03:16:09.895Z,101837.02
2018-12-11T03:18:39.544Z,101842.28
2018-12-11T03:21:09.296Z,101844.49
2018-12-11T03:23:38.458Z,101842.77
2018-12-11T03:26:07.819Z,101839.67
2018-12-11T03:28:37.051Z,101841.89
2018-12-11T03:31:07.553Z,101828.69
2018-12-11T03:33:38.898Z,101822.94
2018-12-11T03:36:08.087Z,101826.01
2018-12-11T03:38:37.244Z,101822.92
2018-12-11T03:41:06.843Z,101831.32
2018-12-11T03:43:36.521Z,101825.16
2018-12-11T03:46:05.741Z,101821.62
2018-12-11T03:48:35.067Z,101824.27
2018-12-11T03:51:04.406Z,101826.91
2018-12-11T03:53:35.837Z,101825.13
2018-12-11T03:56:05.039Z,101826.47
2018-12-11T03:58:34.204Z,101820.30
2018-12-11T04:01:03.508Z,101830.43
2018-12-11T04:03:32.878Z,101830.88
2018-12-11T04:06:03.067Z,101821.61
2018-12-11T04:08:32.237Z,101826.90
2018-12-11T04:11:02.814Z,101824.72
2018-12-11T04:13:32.065Z,101826.47
2018-12-11T04:16:01.234Z,101836.19
2018-12-11T04:18:31.793Z,101829.97
2018-12-11T04:21:01.024Z,101827.78
2018-12-11T04:23:30.252Z,101822.52
2018-12-11T04:25:59.477Z,101833.95
2018-12-11T04:28:28.710Z,101837.05
2018-12-11T04:30:58.830Z,101834.82
2018-12-11T04:33:29.400Z,101831.73
2018-12-11T04:35:58.581Z,101841.47
2018-12-11T04:38:27.757Z,101836.16
2018-12-11T04:40:58.632Z,101837.47
2018-12-11T04:43:29.248Z,101830.42
2018-12-11T04:45:58.780Z,101833.52
2018-12-11T04:48:27.991Z,101835.72
2018-12-11T04:50:57.154Z,101833.09
2018-12-11T04:53:27.371Z,101837.91
2018-12-11T04:55:56.640Z,101837.03
2018-12-11T05:05:14.072Z,101846.67
2018-12-11T05:07:43.495Z,101840.55
2018-12-11T05:10:12.868Z,101846.72
2018-12-11T05:12:42.172Z,101840.14
2018-12-11T05:15:11.356Z,101847.16
2018-12-11T05:17:41.375Z,101837.91
2018-12-11T05:20:10.586Z,101838.36
2018-12-11T05:22:39.745Z,101837.48
2018-12-11T05:25:08.914Z,101827.80
2018-12-11T05:27:39.119Z,101830.86
2018-12-11T05:30:10.051Z,101838.80
2018-12-11T05:32:39.304Z,101837.91
2018-12-11T05:35:08.709Z,101833.08
2018-12-11T05:37:37.990Z,101833.97
2018-12-11T05:40:07.375Z,101835.27
2018-12-11T05:42:37.679Z,101836.16
2018-12-11T05:45:06.877Z,101830.88
2018-12-11T05:47:37.855Z,101825.59
2018-12-11T05:50:08.427Z,101832.20
2018-12-11T05:52:37.894Z,101833.51
2018-12-11T05:55:07.468Z,101824.27
2018-12-11T05:57:36.892Z,101833.50
2018-12-11T06:00:08.383Z,101828.69
2018-12-11T06:02:38.238Z,101833.98
2018-12-11T06:05:10.142Z,101829.09
2018-12-11T06:07:39.443Z,101834.86
2018-12-11T06:10:09.459Z,101841.00
2018-12-11T06:12:38.653Z,101835.27
2018-12-11T06:15:09.829Z,101836.58
2018-12-11T06:17:39.619Z,101838.80
2018-12-11T06:20:09.059Z,101847.18
2018-12-11T06:22:38.433Z,101842.75
2018-12-11T06:25:07.655Z,101840.13
2018-12-11T06:27:39.128Z,101846.29
2018-12-11T06:30:09.606Z,101842.33
2018-12-11T06:32:38.778Z,101848.50
2018-12-11T06:35:08.423Z,101845.85
2018-12-11T06:37:38.070Z,101848.03
2018-12-11T06:40:08.587Z,101852.88
2018-12-11T06:42:38.267Z,101854.24
2018-12-11T06:45:08.544Z,101845.83
2018-12-11T06:47:39.092Z,101846.28
2018-12-11T06:50:08.987Z,101849.80
2018-12-11T06:52:38.163Z,101839.25
2018-12-11T06:55:07.496Z,101835.27
2018-12-11T06:57:36.769Z,101831.75
2018-12-11T07:00:06.991Z,101832.64
2018-12-11T07:02:36.727Z,101835.27
2018-12-11T07:05:06.747Z,101828.23
2018-12-11T07:07:35.874Z,101835.72
2018-12-11T07:10:06.764Z,101829.98
2018-12-11T07:12:37.332Z,101837.93
2018-12-11T07:15:08.102Z,101833.50
2018-12-11T07:17:37.413Z,101841.86
2018-12-11T07:20:08.048Z,101845.40
2018-12-11T07:22:37.465Z,101845.42
2018-12-11T07:25:08.123Z,101843.63
2018-12-11T07:27:37.322Z,101848.05
2018-12-11T07:30:07.695Z,101853.77
2018-12-11T07:32:38.187Z,101853.32
2018-12-11T07:35:07.494Z,101856.86
2018-12-11T07:37:37.890Z,101857.75
2018-12-11T07:40:07.138Z,101852.87
2018-12-11T07:42:36.847Z,101856.45
2018-12-11T07:45:06.771Z,101864.33
2018-12-11T07:47:36.014Z,101861.24
2018-12-11T07:50:06.544Z,101861.25
2018-12-11T07:52:35.749Z,101861.69
2018-12-11T07:55:06.010Z,101858.20
2018-12-11T07:57:35.224Z,101863.48
2018-12-11T08:00:06.124Z,101861.24
2018-12-11T08:02:35.307Z,101859.49
2018-12-11T08:05:04.734Z,101862.58
2018-12-11T08:07:36.018Z,101850.69
2018-12-11T08:12:41.178Z,101847.99
2018-12-11T08:15:11.384Z,101853.77
2018-12-11T08:17:41.599Z,101855.53
2018-12-11T08:20:10.891Z,101862.59
2018-12-11T08:22:40.065Z,101874.91
2018-12-11T08:25:09.303Z,101866.97
2018-12-11T08:27:38.566Z,101869.19
2018-12-11T08:30:09.855Z,101868.28
2018-12-11T08:32:39.604Z,101870.11
2018-12-11T08:35:08.787Z,101868.30
2018-12-11T08:37:37.964Z,101876.68
2018-12-11T08:40:07.816Z,101879.33
2018-12-11T08:42:37.467Z,101878.02
2018-12-11T08:45:07.432Z,101876.66
2018-12-11T08:47:36.737Z,101885.06
2018-12-11T08:50:08.018Z,101893.41
2018-12-11T08:52:38.221Z,101881.53
2018-12-11T08:55:07.561Z,101885.50
2018-12-11T08:57:37.072Z,101893.44
2018-12-11T09:00:07.864Z,101883.73
2018-12-11T09:02:37.635Z,101882.86
2018-12-11T09:05:07.323Z,101889.91
2018-12-11T09:07:37.816Z,101892.09
2018-12-11T09:10:07.857Z,101889.03
2018-12-11T09:12:37.035Z,101892.99
2018-12-11T09:15:08.044Z,101898.23
2018-12-11T09:17:37.202Z,101899.54
2018-12-11T09:20:06.580Z,101894.70
2018-12-11T09:22:35.823Z,101898.61
2018-12-11T09:25:05.799Z,101908.31
2018-12-11T09:27:35.859Z,101898.63
2018-12-11T09:30:06.321Z,101892.89
2018-12-11T09:32:35.552Z,101886.70
2018-12-11T09:35:06.555Z,101891.58
2018-12-11T09:37:37.175Z,101883.67
2018-12-11T09:40:06.631Z,101895.58
2018-12-11T09:42:35.876Z,101901.70
2018-12-11T09:45:08.099Z,101910.55
2018-12-11T09:47:37.553Z,101906.95
2018-12-11T09:50:09.347Z,101908.75
2018-12-11T09:52:38.550Z,101910.12
2018-12-11T09:55:07.949Z,101917.59
2018-12-11T09:57:37.155Z,101914.97
2018-12-11T10:00:09.224Z,101916.31
2018-12-11T10:02:39.450Z,101920.73
2018-12-11T10:05:08.867Z,101914.54
2018-12-11T10:07:38.086Z,101922.02
2018-12-11T10:10:08.059Z,101918.88
2018-12-11T10:12:37.291Z,101925.48
2018-12-11T10:15:07.669Z,101922.36
2018-12-11T10:17:38.104Z,101918.82
2018-12-11T10:20:07.526Z,101922.28
2018-12-11T10:22:38.468Z,101922.73
2018-12-11T10:25:08.528Z,101916.98
2018-12-11T10:27:37.738Z,101918.77
2018-12-11T10:30:08.995Z,101923.12
2018-12-11T10:32:38.560Z,101920.48
2018-12-11T10:35:09.743Z,101923.55
2018-12-11T10:37:39.031Z,101920.03
2018-12-11T10:40:08.203Z,101923.30
2018-12-11T10:49:25.970Z,101915.41
2018-12-11T10:51:55.638Z,101906.48
2018-12-11T10:54:24.838Z,101906.44
2018-12-11T10:56:54.559Z,101910.13
2018-12-11T10:59:23.785Z,101916.30
2018-12-11T11:01:54.366Z,101918.04
2018-12-11T11:04:23.791Z,101912.91
2018-12-11T11:06:52.942Z,101908.47
2018-12-11T11:09:22.159Z,101907.90
2018-12-11T11:11:51.475Z,101907.83
2018-12-11T11:14:22.148Z,101901.42
2018-12-11T11:16:51.568Z,101902.16
2018-12-11T11:19:20.811Z,101894.05
2018-12-11T11:21:49.995Z,101892.52
2018-12-11T11:24:19.236Z,101892.92
2018-12-11T11:26:51.203Z,101897.63
2018-12-11T11:29:20.404Z,101886.55
2018-12-11T11:31:49.589Z,101889.03
2018-12-11T11:34:19.821Z,101889.59
2018-12-11T11:36:51.047Z,101886.98
2018-12-11T11:39:20.414Z,101883.77
2018-12-11T11:41:49.612Z,101875.61
2018-12-11T11:44:18.820Z,101873.11
2018-12-11T11:46:49.233Z,101882.97
2018-12-11T11:49:20.399Z,101881.48
2018-12-11T11:51:49.596Z,101879.91
2018-12-11T11:54:19.764Z,101881.37
2018-12-11T11:56:49.025Z,101881.52
2018-12-11T11:59:18.224Z,101877.05
2018-12-11T12:01:48.527Z,101877.44
2018-12-11T12:08:59.322Z,101877.02
2018-12-11T12:11:27.533Z,101875.23
2018-12-11T12:13:59.149Z,101872.77
2018-12-11T12:16:28.495Z,101875.72
2018-12-11T12:18:57.735Z,101876.46
2018-12-11T12:21:26.988Z,101871.78
2018-12-11T12:23:56.675Z,101875.21
2018-12-11T12:26:28.371Z,101875.17
2018-12-11T12:28:57.844Z,101878.15
2018-12-11T12:31:27.450Z,101860.44
2018-12-11T12:33:58.476Z,101860.87
2018-12-11T12:36:27.777Z,101863.16
2018-12-11T12:38:56.950Z,101856.91
2018-12-11T12:41:26.240Z,101862.87
2018-12-11T12:43:55.462Z,101864.88
2018-12-11T12:46:25.686Z,101870.23
2018-12-11T12:48:54.963Z,101868.64
2018-12-11T12:51:24.159Z,101871.23
2018-12-11T12:53:53.363Z,101868.52
2018-12-11T12:56:23.797Z,101874.98
2018-12-11T12:58:53.973Z,101882.08
2018-12-11T13:01:23.150Z,101875.68
2018-12-11T13:03:52.480Z,101874.05
2018-12-11T13:06:21.896Z,101876.79
2018-12-11T13:08:51.235Z,101883.23
2018-12-11T13:11:21.771Z,101874.84
2018-12-11T13:13:50.953Z,101888.17
2018-12-11T13:16:20.199Z,101880.41
2018-12-11T13:18:49.431Z,101883.16
2018-12-11T13:21:18.627Z,101879.99
2018-12-11T13:23:49.697Z,101865.95
2018-12-11T13:26:20.306Z,101872.14
2018-12-11T13:28:49.547Z,101871.16
2018-12-11T13:31:18.831Z,101863.26
2018-12-11T13:33:48.515Z,101867.93
2018-12-11T13:36:18.199Z,101861.22
2018-12-11T13:38:47.434Z,101862.44
2018-12-11T13:41:16.795Z,101854.86
2018-12-11T13:43:46.629Z,101853.85
2018-12-11T13:46:16.688Z,101852.88
2018-12-11T13:48:47.401Z,101853.41
2018-12-11T13:51:16.607Z,101854.08
2018-12-11T13:53:45.803Z,101857.60
2018-12-11T13:56:15.636Z,101860.52
2018-12-11T13:58:46.609Z,101858.39
2018-12-11T14:01:15.890Z,101855.92
2018-12-11T14:03:45.243Z,101855.22
2018-12-11T14:06:14.467Z,101855.30
2018-12-11T14:08:44.448Z,101859.72
2018-12-11T14:11:13.720Z,101853.23
2018-12-11T14:13:42.901Z,101859.48
2018-12-11T14:16:12.118Z,101855.92
2018-12-11T14:18:41.415Z,101853.23
2018-12-11T14:21:11.603Z,101856.25
2018-12-11T14:23:40.724Z,101856.73
2018-12-11T14:26:11.162Z,101855.06
2018-12-11T14:28:40.317Z,101851.98
2018-12-11T14:31:11.043Z,101853.75
2018-12-11T14:33:41.519Z,101846.20
2018-12-11T14:36:10.883Z,101847.09
2018-12-11T14:38:40.121Z,101844.88
2018-12-11T14:41:09.388Z,101850.86
2018-12-11T14:43:39.548Z,101842.73
2018-12-11T14:46:08.751Z,101839.74
2018-12-11T14:48:39.670Z,101839.77
2018-12-11T14:51:09.025Z,101840.59
2018-12-11T14:53:38.915Z,101844.06
2018-12-11T14:56:10.578Z,101832.63
2018-12-11T14:58:39.923Z,101835.30
2018-12-11T15:01:09.633Z,101837.95
2018-12-11T15:03:39.650Z,101842.30
2018-12-11T15:06:09.003Z,101840.97
2018-12-11T15:08:38.932Z,101836.56
2018-12-11T15:11:08.343Z,101845.36
2018-12-11T15:13:39.052Z,101843.12
2018-12-11T15:16:09.434Z,101848.41
2018-12-11T15:18:39.817Z,101840.88
2018-12-11T15:21:10.139Z,101840.47
2018-12-11T15:23:39.362Z,101851.98
2018-12-11T15:26:09.227Z,101846.68
2018-12-11T15:28:39.070Z,101848.89
2018-12-11T15:31:11.234Z,101843.15
2018-12-11T15:33:40.829Z,101852.07
2018-12-11T15:36:11.651Z,101851.24
2018-12-11T15:38:41.670Z,101842.33
2018-12-11T15:41:41.743Z,101846.34
2018-12-11T15:44:11.022Z,101850.77
2018-12-11T15:46:41.019Z,101844.68
2018-12-11T15:49:11.159Z,101857.83
2018-12-11T15:51:41.419Z,101853.39
2018-12-11T15:54:10.670Z,101855.19
2018-12-11T15:56:40.273Z,101850.90
2018-12-11T15:59:11.270Z,101853.50
2018-12-11T16:01:41.594Z,101849.63
2018-12-11T16:04:11.148Z,101851.38
2018-12-11T16:06:40.517Z,101856.75
2018-12-11T16:09:12.010Z,101855.87
2018-12-11T16:11:42.294Z,101850.63
2018-12-11T16:14:13.047Z,101850.59
2018-12-11T16:16:42.257Z,101851.90
2018-12-11T16:19:12.468Z,101855.88
2018-12-11T16:21:41.672Z,101858.52
2018-12-11T16:24:13.573Z,101854.94
2018-12-11T16:26:43.309Z,101854.43
2018-12-11T16:29:13.058Z,101861.91
2018-12-11T16:31:46.807Z,101858.84
2018-12-11T16:34:16.024Z,101859.31
2018-12-11T16:36:45.803Z,101859.28
2018-12-11T16:39:17.743Z,101865.44
2018-12-11T16:41:46.984Z,101862.80
2018-12-11T16:44:16.159Z,101861.05
2018-12-11T16:46:45.441Z,101871.59
2018-12-11T16:49:15.094Z,101870.31
2018-12-11T16:51:44.662Z,101872.91
2018-12-11T16:54:13.907Z,101876.47
2018-12-11T16:56:43.729Z,101873.42
2018-12-11T16:59:12.895Z,101877.37
2018-12-11T17:01:45.880Z,101876.00
2018-12-11T17:04:15.493Z,101877.33
2018-12-11T17:06:44.712Z,101884.42
2018-12-11T17:09:15.404Z,101881.36
2018-12-11T17:11:44.595Z,101885.38
2018-12-11T17:14:14.826Z,101881.37
2018-12-11T17:16:44.879Z,101887.13
2018-12-11T17:19:14.060Z,101891.53
2018-12-11T17:21:46.922Z,101884.91
2018-12-11T17:24:16.082Z,101888.12
2018-12-11T17:26:45.300Z,101889.42
2018-12-11T17:29:14.569Z,101883.25
2018-12-11T17:31:45.254Z,101892.95
2018-12-11T17:34:16.319Z,101888.13
2018-12-11T17:36:47.632Z,101894.72
2018-12-11T17:39:18.227Z,101897.80
2018-12-11T17:41:47.457Z,101897.75
2018-12-11T17:44:17.667Z,101884.52
2018-12-11T17:46:46.907Z,101891.55
2018-12-11T17:49:16.228Z,101895.89
2018-12-11T17:51:45.425Z,101902.05
2018-12-11T17:54:14.767Z,101894.56
2018-12-11T17:56:45.099Z,101900.81
2018-12-11T17:59:14.623Z,101899.59
2018-12-11T18:01:48.082Z,101903.48
2018-12-11T18:04:17.327Z,101901.72
2018-12-11T18:06:47.779Z,101906.61
2018-12-11T18:09:20.226Z,101908.79
2018-12-11T18:11:49.457Z,101915.41
2018-12-11T18:14:18.900Z,101911.87
2018-12-11T18:16:49.611Z,101908.33
2018-12-11T18:19:18.825Z,101910.95
2018-12-11T18:21:48.969Z,101913.63
2018-12-11T18:24:18.349Z,101914.95
2018-12-11T18:26:47.509Z,101912.31
2018-12-11T18:29:17.547Z,101918.06
2018-12-11T18:31:48.110Z,101918.03
2018-12-11T18:34:17.699Z,101922.88
2018-12-11T18:36:47.058Z,101928.18
2018-12-11T18:39:16.896Z,101932.55
2018-12-11T18:41:48.157Z,101930.33
2018-12-11T18:44:17.551Z,101928.61
2018-12-11T18:46:47.032Z,101929.92
2018-12-11T18:49:16.230Z,101923.33
2018-12-11T18:51:46.532Z,101930.80
2018-12-11T18:54:15.864Z,101932.13
2018-12-11T18:56:45.030Z,101930.82
2018-12-11T18:59:14.380Z,101934.31
2018-12-11T19:01:43.599Z,101925.95
2018-12-11T19:04:15.395Z,101938.30
2018-12-11T19:06:44.800Z,101932.56
2018-12-11T19:09:14.001Z,101936.09
2018-12-11T19:11:45.315Z,101930.36
2018-12-11T19:14:15.061Z,101937.42
2018-12-11T19:16:44.762Z,101930.80
2018-12-11T19:19:14.205Z,101936.97
2018-12-11T19:21:43.430Z,101935.20
2018-12-11T19:24:28.791Z,101932.61
2018-12-11T19:26:58.652Z,101941.84
2018-12-11T19:29:28.984Z,101933.04
2018-12-11T19:31:58.226Z,101934.80
2018-12-11T19:34:27.832Z,101931.73
2018-12-11T19:36:58.272Z,101927.32
2018-12-11T19:39:28.992Z,101925.11
2018-12-11T19:41:58.212Z,101927.77
2018-12-11T19:44:28.108Z,101929.07
2018-12-11T19:46:58.517Z,101931.77
2018-12-11T19:49:27.750Z,101930.45
2018-12-11T19:51:57.431Z,101926.91
2018-12-11T19:54:27.493Z,101928.24
2018-12-11T19:56:57.729Z,101928.67
2018-12-11T19:59:26.967Z,101931.32
2018-12-11T20:01:56.195Z,101930.41
2018-12-11T20:04:27.436Z,101930.86
2018-12-11T20:06:57.206Z,101929.11
2018-12-11T20:16:14.090Z,101937.88
2018-12-11T20:18:44.908Z,101941.85
2018-12-11T20:21:16.267Z,101940.12
2018-12-11T20:23:45.649Z,101941.47
2018-12-11T20:26:15.013Z,101934.41
2018-12-11T20:28:44.852Z,101933.94
2018-12-11T20:31:17.850Z,101943.58
2018-12-11T20:33:47.318Z,101943.18
2018-12-11T20:36:16.928Z,101943.19
2018-12-11T20:38:47.885Z,101940.59
2018-12-11T20:41:17.411Z,101939.25
2018-12-11T20:43:47.398Z,101938.36
2018-12-11T20:46:16.708Z,101937.04
2018-12-11T20:48:47.097Z,101933.98
2018-12-11T20:51:16.405Z,101931.31
2018-12-11T20:53:45.606Z,101924.27
2018-12-11T20:56:15.791Z,101926.48
2018-12-11T20:58:44.999Z,101926.01
2018-12-11T21:01:15.202Z,101918.51
2018-12-11T21:03:44.731Z,101920.27
2018-12-11T21:06:13.987Z,101921.56
2018-12-11T21:08:44.635Z,101923.33
2018-12-11T21:11:13.891Z,101923.80
2018-12-11T21:13:44.520Z,101927.78
2018-12-11T21:16:13.745Z,101924.25
2018-12-11T21:18:43.311Z,101929.52
2018-12-11T21:21:12.939Z,101940.53
2018-12-11T21:23:42.323Z,101934.83
2018-12-11T21:26:12.707Z,101945.87
2018-12-11T21:28:42.121Z,101944.52
2018-12-11T21:31:11.428Z,101948.48
2018-12-11T21:33:40.746Z,101943.18
2018-12-11T21:36:10.008Z,101940.56
2018-12-11T21:38:40.595Z,101938.80
2018-12-11T21:41:10.981Z,101950.70
2018-12-11T21:43:40.222Z,101952.89
2018-12-11T21:46:09.651Z,101948.06
2018-12-11T21:48:41.535Z,101943.65
2018-12-11T21:51:11.151Z,101941.89
2018-12-11T21:53:40.568Z,101937.03
2018-12-11T21:56:10.379Z,101939.70
2018-12-11T21:58:40.525Z,101930.45
2018-12-11T22:01:13.166Z,101929.55
2018-12-11T22:03:42.814Z,101922.52
2018-12-11T22:06:12.498Z,101924.70
2018-12-11T22:08:41.895Z,101920.30
2018-12-11T22:11:12.291Z,101920.74
2018-12-11T22:13:42.130Z,101923.39
2018-12-11T22:16:11.341Z,101926.93
2018-12-11T22:18:40.540Z,101925.61
2018-12-11T22:21:09.748Z,101929.13
2018-12-11T22:23:41.224Z,101935.74
2018-12-11T22:26:11.380Z,101940.57
2018-12-11T22:28:40.728Z,101943.21
2018-12-11T22:31:10.017Z,101945.86
2018-12-11T22:33:40.867Z,101947.17
2018-12-11T22:36:10.626Z,101944.97
2018-12-11T22:38:39.817Z,101943.66
2018-12-11T22:41:09.059Z,101943.65
2018-12-11T22:43:38.258Z,101949.41
2018-12-11T22:46:10.117Z,101955.11
2018-12-11T22:48:39.525Z,101952.46
2018-12-11T22:51:08.851Z,101953.34
2018-12-11T22:53:38.435Z,101951.15
2018-12-11T22:56:07.694Z,101955.13
2018-12-11T22:58:37.940Z,101953.80
2018-12-11T23:01:07.527Z,101953.34
2018-12-11T23:03:36.727Z,101956.86
2018-12-11T23:06:05.927Z,101951.16
2018-12-11T23:08:36.458Z,101958.66
2018-12-11T23:11:07.569Z,101952.92
2018-12-11T23:13:38.030Z,101959.52
2018-12-11T23:16:07.231Z,101955.10
2018-12-11T23:18:36.476Z,101959.52
2018-12-11T23:21:06.251Z,101962.55
2018-12-11T23:23:36.944Z,101961.23
2018-12-11T23:26:06.228Z,101970.09
2018-12-11T23:28:36.719Z,101966.57
2018-12-11T23:31:06.509Z,101973.18
2018-12-11T23:33:37.302Z,101969.23
2018-12-11T23:36:06.689Z,101969.23
2018-12-11T23:38:35.859Z,101970.09
2018-12-11T23:41:05.124Z,101971.88
2018-12-11T23:43:35.169Z,101965.69
2018-12-11T23:46:04.380Z,101959.52
2018-12-11T23:48:34.219Z,101955.55
2018-12-11T23:51:03.408Z,101965.27
2018-12-11T23:53:32.596Z,101959.52
2018-12-11T23:56:04.374Z,101960.41
2018-12-11T23:58:33.547Z,101953.37
